createdAt,value
2018-07-28T00:01:25.388Z,99.90
2018-07-28T00:03:53.704Z,99.90
2018-07-28T00:06:21.623Z,99.90
2018-07-28T00:08:49.553Z,99.90
2018-07-28T00:11:17.431Z,99.90
2018-07-28T00:13:45.410Z,99.90
2018-07-28T00:16:13.268Z,99.90
2018-07-28T00:18:41.251Z,99.90
2018-07-28T00:21:09.185Z,99.90
2018-07-28T00:23:37.186Z,99.90
2018-07-28T00:26:10.612Z,99.90
2018-07-28T00:28:38.359Z,99.90
2018-07-28T00:31:06.194Z,99.90
2018-07-28T00:33:33.937Z,99.90
2018-07-28T00:36:01.679Z,99.90
2018-07-28T00:38:29.412Z,99.90
2018-07-28T00:40:57.127Z,99.90
2018-07-28T00:43:24.887Z,99.90
2018-07-28T00:45:52.616Z,99.90
2018-07-28T00:48:20.392Z,99.90
2018-07-28T00:50:48.133Z,99.90
2018-07-28T00:53:15.868Z,99.90
2018-07-28T00:55:43.583Z,99.90
2018-07-28T00:58:11.370Z,99.90
2018-07-28T01:00:39.180Z,99.90
2018-07-28T01:03:06.976Z,99.90
2018-07-28T01:05:34.732Z,99.90
2018-07-28T01:08:02.484Z,99.90
2018-07-28T01:10:30.374Z,99.90
2018-07-28T01:12:58.082Z,99.90
2018-07-28T01:15:25.817Z,99.90
2018-07-28T01:17:53.605Z,99.90
2018-07-28T01:20:21.399Z,99.90
2018-07-28T01:22:49.164Z,99.90
2018-07-28T01:25:16.911Z,99.90
2018-07-28T01:27:44.688Z,99.90
2018-07-28T01:30:18.780Z,99.90
2018-07-28T01:32:46.807Z,99.90
2018-07-28T01:35:14.567Z,99.90
2018-07-28T01:37:42.375Z,99.90
2018-07-28T01:40:10.105Z,99.90
2018-07-28T01:42:37.853Z,99.90
2018-07-28T01:45:06.713Z,99.90
2018-07-28T01:47:34.518Z,99.90
2018-07-28T01:50:02.356Z,99.90
2018-07-28T01:52:30.089Z,99.90
2018-07-28T01:54:57.785Z,99.90
2018-07-28T01:57:25.496Z,99.90
2018-07-28T01:59:53.214Z,99.90
2018-07-28T02:02:20.973Z,99.90
2018-07-28T02:04:48.695Z,99.90
2018-07-28T02:07:16.443Z,99.90
2018-07-28T02:10:00.898Z,99.90
2018-07-28T02:12:29.084Z,99.90
2018-07-28T02:14:57.042Z,99.90
2018-07-28T02:17:25.132Z,99.90
2018-07-28T02:19:53.019Z,99.90
2018-07-28T02:22:22.998Z,99.90
2018-07-28T02:24:50.898Z,99.90
2018-07-28T02:27:18.881Z,99.90
2018-07-28T02:29:46.739Z,99.90
2018-07-28T02:32:14.784Z,99.90
2018-07-28T02:34:42.674Z,99.90
2018-07-28T02:37:10.667Z,99.90
2018-07-28T02:39:38.523Z,99.90
2018-07-28T02:42:06.496Z,99.90
2018-07-28T02:44:34.428Z,99.90
2018-07-28T02:47:02.476Z,99.90
2018-07-28T02:49:30.321Z,99.90
2018-07-28T02:51:58.271Z,99.90
2018-07-28T02:54:26.240Z,99.90
2018-07-28T02:56:54.200Z,99.90
2018-07-28T02:59:22.090Z,99.90
2018-07-28T03:01:50.044Z,99.90
2018-07-28T03:04:17.976Z,99.90
2018-07-28T03:06:45.974Z,99.90
2018-07-28T03:09:13.896Z,99.90
2018-07-28T03:11:41.878Z,99.90
2018-07-28T03:14:09.719Z,99.90
2018-07-28T03:16:37.539Z,99.90
2018-07-28T03:19:05.572Z,99.90
2018-07-28T03:21:33.329Z,99.90
2018-07-28T03:24:01.154Z,99.90
2018-07-28T03:26:28.933Z,99.90
2018-07-28T03:28:56.679Z,99.90
2018-07-28T03:31:24.374Z,99.90
2018-07-28T03:33:52.109Z,99.90
2018-07-28T03:36:19.808Z,99.90
2018-07-28T03:38:47.621Z,99.90
2018-07-28T03:41:15.489Z,99.90
2018-07-28T03:43:43.256Z,99.90
2018-07-28T03:46:12.100Z,99.90
2018-07-28T03:48:39.855Z,99.90
2018-07-28T03:51:07.640Z,99.90
2018-07-28T03:53:35.373Z,99.90
2018-07-28T03:56:03.240Z,99.90
2018-07-28T03:58:30.934Z,99.90
2018-07-28T04:00:58.745Z,99.90
2018-07-28T04:03:26.529Z,99.90
2018-07-28T04:05:54.349Z,99.90
2018-07-28T04:08:22.076Z,99.90
2018-07-28T04:10:49.864Z,99.90
2018-07-28T04:13:17.616Z,99.90
2018-07-28T04:15:45.341Z,99.90
2018-07-28T04:18:13.110Z,99.90
2018-07-28T04:20:40.897Z,99.90
2018-07-28T04:23:08.651Z,99.90
2018-07-28T04:25:36.424Z,99.90
2018-07-28T04:28:04.161Z,99.90
2018-07-28T04:30:31.911Z,99.90
2018-07-28T04:32:59.594Z,99.90
2018-07-28T04:35:27.345Z,99.90
2018-07-28T04:37:55.047Z,99.90
2018-07-28T04:40:22.881Z,99.90
2018-07-28T04:42:50.591Z,99.90
2018-07-28T04:45:18.341Z,99.90
2018-07-28T04:47:46.086Z,99.90
2018-07-28T04:50:13.855Z,99.90
2018-07-28T04:52:41.643Z,99.90
2018-07-28T04:55:09.340Z,99.90
2018-07-28T04:57:37.066Z,99.90
2018-07-28T05:00:05.252Z,99.90
2018-07-28T05:02:33.078Z,99.90
2018-07-28T05:05:00.820Z,99.90
2018-07-28T05:07:30.652Z,99.90
2018-07-28T05:09:58.337Z,99.90
2018-07-28T05:12:26.105Z,99.90
2018-07-28T05:14:53.903Z,99.90
2018-07-28T05:17:21.668Z,99.90
2018-07-28T05:19:49.442Z,99.90
2018-07-28T05:22:17.210Z,99.90
2018-07-28T05:24:44.959Z,99.90
2018-07-28T05:27:12.777Z,99.90
2018-07-28T05:29:40.593Z,99.90
2018-07-28T05:32:08.340Z,99.90
2018-07-28T05:34:36.106Z,99.90
2018-07-28T05:37:03.926Z,99.90
2018-07-28T05:39:31.675Z,99.90
2018-07-28T05:41:59.460Z,99.90
2018-07-28T05:44:27.226Z,99.90
2018-07-28T05:46:55.038Z,99.90
2018-07-28T05:49:22.827Z,99.90
2018-07-28T05:51:50.580Z,99.90
2018-07-28T05:54:18.324Z,99.90
2018-07-28T05:56:47.084Z,99.90
2018-07-28T05:59:14.839Z,99.90
2018-07-28T06:01:42.675Z,99.90
2018-07-28T06:04:10.488Z,99.90
2018-07-28T06:06:38.244Z,99.90
2018-07-28T06:09:07.024Z,99.90
2018-07-28T06:11:34.765Z,99.90
2018-07-28T06:14:02.797Z,99.90
2018-07-28T06:16:30.540Z,99.90
2018-07-28T06:18:58.292Z,99.90
2018-07-28T06:21:26.032Z,99.90
2018-07-28T06:23:53.787Z,99.90
2018-07-28T06:26:21.575Z,99.90
2018-07-28T06:28:49.360Z,99.90
2018-07-28T06:31:17.150Z,99.90
2018-07-28T06:33:44.900Z,99.90
2018-07-28T06:36:12.652Z,99.90
2018-07-28T06:38:40.415Z,99.90
2018-07-28T06:41:08.204Z,99.90
2018-07-28T06:43:35.951Z,99.90
2018-07-28T06:46:03.810Z,99.90
2018-07-28T06:48:31.619Z,99.90
2018-07-28T06:50:59.417Z,99.90
2018-07-28T06:53:27.200Z,99.90
2018-07-28T06:55:54.942Z,99.90
2018-07-28T06:58:22.710Z,99.90
2018-07-28T07:00:50.508Z,99.90
2018-07-28T07:03:18.257Z,99.90
2018-07-28T07:05:46.074Z,99.90
2018-07-28T07:08:13.842Z,99.90
2018-07-28T07:10:41.668Z,99.90
2018-07-28T07:13:09.445Z,99.90
2018-07-28T07:15:37.240Z,99.90
2018-07-28T07:18:05.091Z,99.90
2018-07-28T07:20:32.740Z,99.90
2018-07-28T07:23:00.503Z,99.90
2018-07-28T07:25:28.295Z,99.90
2018-07-28T07:27:56.026Z,99.90
2018-07-28T07:30:23.859Z,99.90
2018-07-28T07:32:51.633Z,99.90
2018-07-28T07:35:19.457Z,99.90
2018-07-28T07:37:47.233Z,99.90
2018-07-28T07:40:15.092Z,99.90
2018-07-28T07:42:42.828Z,99.90
2018-07-28T07:45:10.658Z,99.90
2018-07-28T07:47:38.545Z,99.90
2018-07-28T07:50:06.274Z,99.90
2018-07-28T07:52:34.019Z,99.90
2018-07-28T07:55:01.825Z,99.90
2018-07-28T07:57:29.619Z,99.90
2018-07-28T07:59:57.401Z,99.90
2018-07-28T08:02:25.154Z,99.90
2018-07-28T08:04:52.994Z,99.90
2018-07-28T08:07:20.748Z,99.90
2018-07-28T08:09:48.584Z,99.90
2018-07-28T08:12:16.348Z,99.90
2018-07-28T08:14:44.100Z,99.90
2018-07-28T08:17:12.924Z,99.90
2018-07-28T08:19:40.662Z,99.90
2018-07-28T08:22:08.456Z,99.90
2018-07-28T08:24:36.297Z,99.90
2018-07-28T08:27:04.216Z,99.90
2018-07-28T08:29:31.996Z,99.90
2018-07-28T08:31:59.844Z,99.90
2018-07-28T08:34:27.693Z,99.90
2018-07-28T08:36:55.455Z,99.90
2018-07-28T08:39:23.222Z,99.90
2018-07-28T08:41:51.000Z,99.90
2018-07-28T08:44:18.772Z,99.90
2018-07-28T08:46:46.519Z,99.90
2018-07-28T08:49:14.442Z,99.90
2018-07-28T08:51:42.221Z,99.90
2018-07-28T08:54:09.974Z,99.90
2018-07-28T08:56:38.561Z,99.90
2018-07-28T08:59:06.334Z,99.90
2018-07-28T09:01:34.135Z,99.90
2018-07-28T09:04:02.063Z,99.90
2018-07-28T09:06:29.979Z,99.90
2018-07-28T09:08:57.879Z,99.90
2018-07-28T09:11:25.768Z,99.90
2018-07-28T09:13:53.671Z,99.90
2018-07-28T09:16:21.655Z,99.90
2018-07-28T09:18:49.564Z,99.90
2018-07-28T09:21:17.610Z,99.70
2018-07-28T09:23:45.541Z,98.90
2018-07-28T09:26:13.450Z,99.20
2018-07-28T09:28:41.290Z,99.40
2018-07-28T09:31:09.219Z,98.60
2018-07-28T09:33:37.141Z,99.60
2018-07-28T09:36:05.092Z,99.80
2018-07-28T09:38:33.028Z,99.90
2018-07-28T09:41:01.137Z,99.90
2018-07-28T09:43:30.183Z,99.90
2018-07-28T09:45:59.621Z,99.00
2018-07-28T09:48:27.566Z,98.70
2018-07-28T09:50:57.600Z,97.30
2018-07-28T09:53:25.504Z,96.00
2018-07-28T09:55:53.434Z,94.40
2018-07-28T09:58:21.301Z,93.30
2018-07-28T10:00:54.998Z,91.70
2018-07-28T10:03:22.922Z,91.60
2018-07-28T10:08:23.285Z,92.50
2018-07-28T10:11:25.696Z,90.80
2018-07-28T10:13:53.832Z,88.90
2018-07-28T10:16:21.794Z,84.10
2018-07-28T10:18:50.027Z,82.20
2018-07-28T10:21:18.031Z,83.90
2018-07-28T10:23:46.104Z,82.60
2018-07-28T10:26:14.082Z,80.80
2018-07-28T10:28:42.213Z,82.40
2018-07-28T10:31:10.105Z,83.20
2018-07-28T10:33:38.153Z,83.10
2018-07-28T10:36:06.274Z,85.10
2018-07-28T10:38:34.336Z,85.30
2018-07-28T10:41:02.301Z,83.70
2018-07-28T10:43:30.439Z,84.10
2018-07-28T10:45:58.816Z,84.10
2018-07-28T10:48:27.061Z,85.10
2018-07-28T10:50:54.972Z,82.90
2018-07-28T10:53:23.192Z,82.20
2018-07-28T10:55:51.150Z,82.50
2018-07-28T10:58:19.245Z,81.40
2018-07-28T11:00:47.135Z,80.90
2018-07-28T11:03:15.207Z,81.40
2018-07-28T11:05:43.131Z,82.40
2018-07-28T11:08:11.165Z,83.00
2018-07-28T11:10:39.104Z,83.20
2018-07-28T11:13:07.212Z,84.30
2018-07-28T11:15:35.050Z,82.30
2018-07-28T11:18:02.955Z,80.00
2018-07-28T11:20:30.743Z,79.80
2018-07-28T11:22:58.660Z,81.80
2018-07-28T11:25:26.456Z,78.90
2018-07-28T11:27:54.304Z,76.60
2018-07-28T11:30:22.077Z,74.80
2018-07-28T11:33:01.034Z,73.70
2018-07-28T11:35:40.084Z,72.10
2018-07-28T11:38:29.933Z,74.00
2018-07-28T11:41:08.909Z,76.30
2018-07-28T11:43:48.018Z,77.80
2018-07-28T11:46:15.779Z,77.50
2018-07-28T11:48:43.684Z,79.00
2018-07-28T11:51:11.535Z,79.30
2018-07-28T11:53:39.498Z,80.40
2018-07-28T11:56:07.263Z,79.80
2018-07-28T11:58:35.354Z,80.60
2018-07-28T12:01:03.681Z,80.40
2018-07-28T12:03:31.636Z,80.10
2018-07-28T12:05:59.401Z,79.40
2018-07-28T12:08:27.319Z,78.90
2018-07-28T12:10:55.136Z,79.20
2018-07-28T12:13:23.088Z,75.30
2018-07-28T12:15:52.002Z,72.80
2018-07-28T12:18:19.867Z,72.60
2018-07-28T12:20:47.649Z,73.70
2018-07-28T12:23:15.400Z,73.90
2018-07-28T12:25:45.234Z,73.50
2018-07-28T12:28:12.966Z,71.00
2018-07-28T12:30:40.843Z,66.60
2018-07-28T12:33:08.647Z,64.70
2018-07-28T12:35:36.610Z,62.50
2018-07-28T12:38:04.992Z,62.00
2018-07-28T12:40:32.914Z,62.70
2018-07-28T12:43:00.672Z,64.90
2018-07-28T12:45:28.436Z,64.20
2018-07-28T12:47:56.672Z,63.60
2018-07-28T12:50:24.437Z,61.80
2018-07-28T12:52:52.373Z,59.70
2018-07-28T13:00:05.574Z,57.70
2018-07-28T13:02:50.780Z,57.50
2018-07-28T13:05:18.565Z,57.70
2018-07-28T13:07:46.311Z,56.80
2018-07-28T13:10:14.105Z,58.40
2018-07-28T13:12:41.808Z,55.70
2018-07-28T13:15:09.565Z,56.00
2018-07-28T13:17:37.337Z,56.60
2018-07-28T13:20:05.699Z,55.40
2018-07-28T13:22:34.456Z,54.80
2018-07-28T13:25:02.244Z,54.50
2018-07-28T13:27:31.171Z,55.80
2018-07-28T13:29:59.110Z,55.00
2018-07-28T13:32:27.673Z,55.00
2018-07-28T13:34:55.421Z,53.30
2018-07-28T13:37:23.197Z,54.50
2018-07-28T13:39:51.230Z,53.90
2018-07-28T13:42:18.967Z,52.00
2018-07-28T13:44:46.752Z,51.90
2018-07-28T13:47:14.492Z,52.10
2018-07-28T13:49:42.247Z,52.60
2018-07-28T13:52:10.140Z,52.90
2018-07-28T13:54:37.979Z,52.00
2018-07-28T13:57:05.774Z,50.40
2018-07-28T13:59:33.567Z,49.10
2018-07-28T14:02:01.303Z,49.10
2018-07-28T14:04:29.126Z,49.00
2018-07-28T14:06:56.863Z,50.60
2018-07-28T14:09:24.567Z,51.10
2018-07-28T14:11:52.267Z,51.30
2018-07-28T14:14:20.000Z,49.60
2018-07-28T14:16:47.744Z,51.40
2018-07-28T14:19:16.477Z,51.20
2018-07-28T14:21:44.236Z,51.50
2018-07-28T14:24:11.982Z,49.70
2018-07-28T14:26:39.716Z,47.40
2018-07-28T14:29:07.463Z,47.00
2018-07-28T14:31:35.303Z,48.40
2018-07-28T14:34:03.038Z,46.80
2018-07-28T14:36:30.801Z,43.90
2018-07-28T14:38:58.670Z,44.60
2018-07-28T14:41:26.520Z,43.40
2018-07-28T14:43:54.280Z,43.80
2018-07-28T14:46:22.040Z,45.20
2018-07-28T14:48:49.766Z,45.90
2018-07-28T14:51:17.526Z,45.60
2018-07-28T14:53:46.313Z,45.60
2018-07-28T14:56:14.141Z,45.90
2018-07-28T15:01:10.391Z,46.50
2018-07-28T15:03:38.155Z,44.50
2018-07-28T15:06:30.054Z,45.30
2018-07-28T15:08:57.826Z,46.60
2018-07-28T15:11:25.597Z,45.80
2018-07-28T15:13:53.373Z,46.90
2018-07-28T15:16:21.132Z,47.60
2018-07-28T15:18:48.896Z,47.30
2018-07-28T15:21:16.643Z,48.00
2018-07-28T15:23:44.450Z,47.50
2018-07-28T15:26:12.260Z,46.70
2018-07-28T15:28:40.042Z,46.90
2018-07-28T15:31:07.794Z,46.50
2018-07-28T15:33:35.745Z,45.00
2018-07-28T15:36:03.590Z,45.40
2018-07-28T15:38:31.379Z,46.90
2018-07-28T15:40:59.145Z,46.30
2018-07-28T15:43:26.879Z,45.90
2018-07-28T15:45:54.616Z,45.80
2018-07-28T15:48:22.327Z,44.40
2018-07-28T15:50:50.066Z,46.50
2018-07-28T15:53:17.843Z,45.80
2018-07-28T15:55:46.639Z,45.70
2018-07-28T15:58:14.432Z,45.30
2018-07-28T16:00:42.150Z,46.20
2018-07-28T16:03:09.872Z,45.50
2018-07-28T16:05:37.859Z,44.70
2018-07-28T16:08:06.621Z,43.90
2018-07-28T16:10:34.378Z,45.40
2018-07-28T16:13:02.388Z,45.90
2018-07-28T16:15:30.141Z,44.80
2018-07-28T16:17:58.046Z,45.00
2018-07-28T16:20:25.803Z,45.10
2018-07-28T16:22:53.584Z,43.60
2018-07-28T16:25:21.413Z,43.60
2018-07-28T16:27:49.324Z,45.00
2018-07-28T16:30:17.021Z,46.00
2018-07-28T16:32:44.815Z,46.70
2018-07-28T16:35:12.544Z,46.60
2018-07-28T16:37:40.360Z,46.30
2018-07-28T16:40:09.203Z,45.90
2018-07-28T16:42:36.961Z,45.20
2018-07-28T16:45:05.053Z,44.40
2018-07-28T16:47:32.814Z,45.70
2018-07-28T16:50:01.708Z,44.80
2018-07-28T16:52:29.493Z,44.00
2018-07-28T16:54:57.265Z,45.00
2018-07-28T16:57:25.176Z,45.80
2018-07-28T16:59:53.231Z,46.90
2018-07-28T17:02:21.107Z,45.60
2018-07-28T17:04:49.144Z,46.10
2018-07-28T17:07:17.100Z,45.60
2018-07-28T17:09:44.988Z,45.70
2018-07-28T17:12:12.864Z,45.90
2018-07-28T17:14:40.977Z,46.90
2018-07-28T17:17:08.931Z,48.30
2018-07-28T17:19:37.159Z,49.40
2018-07-28T17:22:05.189Z,49.40
2018-07-28T17:24:33.192Z,49.80
2018-07-28T17:27:01.127Z,49.60
2018-07-28T17:29:29.144Z,50.30
2018-07-28T17:31:57.054Z,50.60
2018-07-28T17:34:25.243Z,50.60
2018-07-28T17:36:53.162Z,51.40
2018-07-28T17:39:21.155Z,51.50
2018-07-28T17:41:49.036Z,51.60
2018-07-28T17:44:17.125Z,52.30
2018-07-28T17:46:45.088Z,51.60
2018-07-28T17:49:13.005Z,51.80
2018-07-28T17:51:40.963Z,52.00
2018-07-28T17:54:09.033Z,51.90
2018-07-28T17:56:37.130Z,52.90
2018-07-28T18:02:06.442Z,52.40
2018-07-28T18:04:34.224Z,53.40
2018-07-28T18:07:02.989Z,53.50
2018-07-28T18:09:30.772Z,53.20
2018-07-28T18:11:58.678Z,54.10
2018-07-28T18:14:26.424Z,53.90
2018-07-28T18:16:56.301Z,54.60
2018-07-28T18:19:24.107Z,55.30
2018-07-28T18:21:52.966Z,55.40
2018-07-28T18:24:20.828Z,55.80
2018-07-28T18:26:48.743Z,56.90
2018-07-28T18:29:16.484Z,57.30
2018-07-28T18:31:44.404Z,57.30
2018-07-28T18:34:12.211Z,57.40
2018-07-28T18:36:39.961Z,57.70
2018-07-28T18:39:09.221Z,57.80
2018-07-28T18:41:37.034Z,59.40
2018-07-28T18:44:29.075Z,58.90
2018-07-28T18:46:57.942Z,59.40
2018-07-28T18:49:25.734Z,60.00
2018-07-28T18:51:53.674Z,60.00
2018-07-28T18:54:30.303Z,61.20
2018-07-28T18:56:58.249Z,61.10
2018-07-28T18:59:25.996Z,62.00
2018-07-28T19:01:53.844Z,62.10
2018-07-28T19:04:21.591Z,63.70
2018-07-28T19:06:50.397Z,62.70
2018-07-28T19:09:23.650Z,63.10
2018-07-28T19:11:51.502Z,65.10
2018-07-28T19:14:24.900Z,64.70
2018-07-28T19:16:52.740Z,66.20
2018-07-28T19:19:20.687Z,65.80
2018-07-28T19:21:48.480Z,65.90
2018-07-28T19:24:16.332Z,67.50
2018-07-28T19:26:44.125Z,67.10
2018-07-28T19:29:17.669Z,68.30
2018-07-28T19:31:45.407Z,69.20
2018-07-28T19:34:13.205Z,69.70
2018-07-28T19:36:46.469Z,69.20
2018-07-28T19:39:14.217Z,70.30
2018-07-28T19:41:47.444Z,72.00
2018-07-28T19:44:41.753Z,72.40
2018-07-28T19:47:09.801Z,72.50
2018-07-28T19:49:37.663Z,74.30
2018-07-28T19:52:05.767Z,74.00
2018-07-28T19:54:33.645Z,74.10
2018-07-28T19:57:01.623Z,75.20
2018-07-28T19:59:29.548Z,75.20
2018-07-28T20:01:57.570Z,75.80
2018-07-28T20:04:25.473Z,77.10
2018-07-28T20:06:54.592Z,78.40
2018-07-28T20:09:22.455Z,78.30
2018-07-28T20:11:50.497Z,78.00
2018-07-28T20:14:18.388Z,78.90
2018-07-28T20:16:46.541Z,81.00
2018-07-28T20:19:14.645Z,81.90
2018-07-28T20:21:43.685Z,79.50
2018-07-28T20:24:11.557Z,81.80
2018-07-28T20:26:39.594Z,80.20
2018-07-28T20:29:07.572Z,80.10
2018-07-28T20:31:35.770Z,80.80
2018-07-28T20:34:03.661Z,81.50
2018-07-28T20:36:31.695Z,81.70
2018-07-28T20:38:59.580Z,82.80
2018-07-28T20:41:27.895Z,82.00
2018-07-28T20:43:55.793Z,83.10
2018-07-28T20:46:23.558Z,83.20
2018-07-28T20:48:51.331Z,84.50
2018-07-28T20:51:19.042Z,83.10
2018-07-28T20:53:46.909Z,82.70
2018-07-28T20:56:14.627Z,83.40
2018-07-28T20:58:42.362Z,84.70
2018-07-28T21:01:10.081Z,84.50
2018-07-28T21:03:37.854Z,87.00
2018-07-28T21:06:05.624Z,88.60
2018-07-28T21:08:33.389Z,88.20
2018-07-28T21:11:01.161Z,88.50
2018-07-28T21:13:29.027Z,88.40
2018-07-28T21:15:57.883Z,90.70
2018-07-28T21:18:25.570Z,88.10
2018-07-28T21:20:53.452Z,87.90
2018-07-28T21:23:21.167Z,92.80
2018-07-28T21:25:48.969Z,91.40
2018-07-28T21:28:16.744Z,90.50
2018-07-28T21:30:44.494Z,92.90
2018-07-28T21:33:12.246Z,91.50
2018-07-28T21:35:40.016Z,92.10
2018-07-28T21:38:07.953Z,93.40
2018-07-28T21:40:35.792Z,91.10
2018-07-28T21:43:03.564Z,91.10
2018-07-28T21:45:31.306Z,90.80
2018-07-28T21:47:59.080Z,91.60
2018-07-28T21:50:27.016Z,92.10
2018-07-28T21:52:54.905Z,91.50
2018-07-28T21:55:22.733Z,92.60
2018-07-28T21:57:50.451Z,91.50
2018-07-28T22:00:18.295Z,91.50
2018-07-28T22:02:46.007Z,91.70
2018-07-28T22:05:13.873Z,92.70
2018-07-28T22:07:41.613Z,92.60
2018-07-28T22:10:09.629Z,92.10
2018-07-28T22:12:37.367Z,91.80
2018-07-28T22:15:06.315Z,92.20
2018-07-28T22:17:34.048Z,92.20
2018-07-28T22:20:01.797Z,91.50
2018-07-28T22:22:29.620Z,91.90
2018-07-28T22:24:57.465Z,91.40
2018-07-28T22:27:25.211Z,91.50
2018-07-28T22:29:53.012Z,92.60
2018-07-28T22:32:20.796Z,91.90
2018-07-28T22:34:48.732Z,92.10
2018-07-28T22:37:16.435Z,92.20
2018-07-28T22:39:44.251Z,92.40
2018-07-28T22:42:12.004Z,92.80
2018-07-28T22:44:39.850Z,92.70
2018-07-28T22:47:07.717Z,92.90
2018-07-28T22:49:35.470Z,92.30
2018-07-28T22:52:03.365Z,92.70
2018-07-28T22:54:31.134Z,93.70
2018-07-28T22:56:58.971Z,93.00
2018-07-28T22:59:26.704Z,92.80
2018-07-28T23:01:54.717Z,93.00
2018-07-28T23:04:22.429Z,93.20
2018-07-28T23:06:51.174Z,93.20
2018-07-28T23:09:18.872Z,93.00
2018-07-28T23:11:46.801Z,92.60
2018-07-28T23:14:14.584Z,92.60
2018-07-28T23:16:42.300Z,93.00
2018-07-28T23:19:10.208Z,93.60
2018-07-28T23:21:37.925Z,93.70
2018-07-28T23:24:06.743Z,93.60
2018-07-28T23:26:34.471Z,93.30
2018-07-28T23:29:03.211Z,93.30
2018-07-28T23:31:30.919Z,92.30
2018-07-28T23:33:58.852Z,91.90
2018-07-28T23:36:26.599Z,92.30
2018-07-28T23:38:54.355Z,93.40
2018-07-28T23:41:22.077Z,92.30
2018-07-28T23:43:49.893Z,92.60
2018-07-28T23:46:17.728Z,92.50
2018-07-28T23:48:45.471Z,92.80
2018-07-28T23:51:13.234Z,92.60
2018-07-28T23:53:40.952Z,92.30
2018-07-28T23:56:08.764Z,92.60
2018-07-28T23:58:36.517Z,92.40
